Time;durP1;ratioP1;P1;durP2;ratioP2;P2;SDS_P1;SDS_P2;PMS_P1;PMS_P2;Temp;Humidity;BMP_temperature;BMP_pressure;BME280_temperature;BME280_humidity;BME280_pressure;Samples;Min_cycle;Max_cycle;Signal;HPM_P1;HPM_P2
2022/02/15 00:01:37;;;;;;;8.93;6.07;;;;;;;-4.87;83.00;97129.25;6227942;28;20245;-71
2022/02/15 00:04:39;;;;;;;9.60;5.83;;;;;;;-4.87;82.41;97126.69;6231321;28;20228;-75
2022/02/15 00:07:42;;;;;;;8.70;5.87;;;;;;;-4.89;82.69;97123.31;6231412;28;20228;-74
2022/02/15 00:10:47;;;;;;;8.80;6.27;;;;;;;-4.95;82.34;97116.59;6228066;28;20227;-72
2022/02/15 00:13:49;;;;;;;9.83;6.23;;;;;;;-4.98;82.58;97115.84;6230027;28;20236;-72
2022/02/15 00:16:51;;;;;;;10.73;6.83;;;;;;;-4.99;82.70;97117.56;6211309;28;20238;-72
2022/02/15 00:19:54;;;;;;;8.83;5.60;;;;;;;-4.98;82.74;97121.81;6229825;28;20258;-72
2022/02/15 00:22:56;;;;;;;10.83;6.00;;;;;;;-5.02;82.70;97125.41;6229827;28;21178;-73
2022/02/15 00:25:58;;;;;;;9.00;6.07;;;;;;;-5.04;82.63;97122.00;6228876;28;20241;-73
2022/02/15 00:29:01;;;;;;;11.27;5.83;;;;;;;-5.06;82.64;97121.22;6227366;28;20338;-72
2022/02/15 00:32:04;;;;;;;10.37;6.03;;;;;;;-5.04;82.77;97118.59;6229399;28;20231;-74
2022/02/15 00:35:07;;;;;;;8.60;5.57;;;;;;;-5.06;82.97;97113.50;6207092;28;20243;-72
2022/02/15 00:38:10;;;;;;;9.37;5.93;;;;;;;-5.04;82.83;97116.03;6229393;28;20236;-73
2022/02/15 00:41:13;;;;;;;10.23;6.37;;;;;;;-5.02;82.83;97119.41;6215404;28;20235;-73
2022/02/15 00:44:15;;;;;;;8.53;6.33;;;;;;;-4.96;83.58;97116.66;6226955;28;20771;-73
2022/02/15 00:47:17;;;;;;;9.70;5.60;;;;;;;-4.92;82.93;97110.53;6211834;28;20736;-73
2022/02/15 00:50:20;;;;;;;9.83;6.23;;;;;;;-4.95;82.84;97105.47;6226954;28;20251;-73
2022/02/15 00:53:22;;;;;;;10.80;6.47;;;;;;;-4.96;83.13;97111.50;6211817;28;20230;-73
2022/02/15 00:56:25;;;;;;;9.43;5.73;;;;;;;-4.96;82.76;97114.06;6230534;28;20231;-73
2022/02/15 00:59:27;;;;;;;9.20;6.03;;;;;;;-4.96;82.93;97112.34;6226941;28;20227;-73
2022/02/15 01:02:30;;;;;;;12.00;6.30;;;;;;;-4.93;83.21;97109.69;6229327;28;20262;-73
2022/02/15 01:05:32;;;;;;;7.57;5.33;;;;;;;-4.93;83.36;97111.41;6244226;28;20227;-72
2022/02/15 01:08:36;;;;;;;7.70;5.50;;;;;;;-4.94;83.25;97115.72;6229254;28;20341;-71
2022/02/15 01:11:42;;;;;;;10.50;6.17;;;;;;;-4.95;83.42;97110.63;6209251;28;20228;-73
2022/02/15 01:15:16;;;;;;;8.23;5.17;;;;;;;-4.98;83.79;97115.84;6126399;28;20285;-73
2022/02/15 01:18:20;;;;;;;9.43;6.23;;;;;;;-5.03;82.93;97130.56;6128103;28;20213;-72
2022/02/15 01:21:22;;;;;;;9.93;6.00;;;;;;;-5.02;83.61;97129.69;6112471;28;20321;-73
2022/02/15 01:24:25;;;;;;;7.97;5.53;;;;;;;-4.99;83.74;97133.00;6112739;28;20230;-73
2022/02/15 01:27:27;;;;;;;10.70;6.50;;;;;;;-4.93;83.47;97134.59;6128112;28;20238;-74
2022/02/15 01:30:31;;;;;;;8.40;5.57;;;;;;;-4.89;83.58;97129.28;6145003;28;20602;-73
2022/02/15 01:33:34;;;;;;;9.33;5.77;;;;;;;-4.85;83.52;97133.47;6112957;28;20238;-73
2022/02/15 01:36:38;;;;;;;7.87;5.80;;;;;;;-4.86;83.49;97138.66;6127805;28;20242;-72
2022/02/15 01:39:41;;;;;;;10.50;6.17;;;;;;;-4.84;83.36;97134.31;6113041;28;20351;-73
2022/02/15 01:42:44;;;;;;;10.13;6.13;;;;;;;-4.82;83.25;97136.84;6127663;28;20246;-73
2022/02/15 01:45:46;;;;;;;9.47;5.80;;;;;;;-4.80;83.33;97133.34;6172324;28;20247;-73
2022/02/15 01:48:49;;;;;;;9.03;5.30;;;;;;;-4.71;83.07;97121.94;6201900;28;20233;-73
2022/02/15 01:51:55;;;;;;;8.13;6.37;;;;;;;-4.63;83.98;97122.56;6207514;28;20236;-72
2022/02/15 01:55:00;;;;;;;10.63;6.57;;;;;;;-4.55;83.81;97125.75;6216474;28;20243;-73
2022/02/15 01:58:04;;;;;;;11.33;6.83;;;;;;;-4.46;83.35;97128.03;6203559;28;20597;-72
2022/02/15 02:01:09;;;;;;;10.17;6.37;;;;;;;-4.46;83.67;97133.19;6202890;28;20653;-75
2022/02/15 02:07:38;;;;;;;10.90;6.00;;;;;;;-4.47;83.78;97136.66;6202409;28;20752;-73
2022/02/15 02:10:41;;;;;;;13.07;5.80;;;;;;;-4.51;83.92;97135.94;6216532;28;20358;-72
2022/02/15 02:13:51;;;;;;;11.03;6.53;;;;;;;-4.52;83.83;97131.66;6216618;28;20788;-73
2022/02/15 02:16:54;;;;;;;10.43;6.00;;;;;;;-4.56;84.18;97139.50;6213914;28;20644;-74
2022/02/15 02:20:04;;;;;;;8.80;5.97;;;;;;;-4.57;83.57;97138.66;6207523;28;20229;-73
2022/02/15 02:23:15;;;;;;;7.40;5.37;;;;;;;-4.62;83.53;97150.84;6202645;28;20760;-73
2022/02/15 02:26:19;;;;;;;9.83;5.93;;;;;;;-4.64;83.96;97144.03;6201389;28;20228;-73
2022/02/15 02:29:21;;;;;;;8.23;5.43;;;;;;;-4.64;83.84;97138.91;6213580;28;20720;-75
2022/02/15 02:32:29;;;;;;;10.50;5.10;;;;;;;-4.63;84.32;97136.28;6226083;28;20227;-73
2022/02/15 02:35:32;;;;;;;10.83;5.80;;;;;;;-4.60;83.94;97127.63;6214887;28;20736;-73
2022/02/15 02:38:34;;;;;;;8.30;5.60;;;;;;;-4.56;84.93;97139.50;6226597;28;20227;-73
2022/02/15 02:41:38;;;;;;;9.10;5.30;;;;;;;-4.53;84.07;97152.31;6209462;28;20243;-73
2022/02/15 02:44:42;;;;;;;7.17;5.40;;;;;;;-4.45;84.13;97147.75;6215434;28;20224;-73
2022/02/15 02:47:49;;;;;;;9.07;6.10;;;;;;;-4.41;83.73;97144.22;6212705;28;20610;-73
2022/02/15 02:50:52;;;;;;;8.70;5.97;;;;;;;-4.34;84.04;97150.03;6200789;28;20708;-74
2022/02/15 02:53:54;;;;;;;10.10;6.47;;;;;;;-4.26;84.12;97148.06;6200955;28;20231;-74
2022/02/15 02:57:01;;;;;;;10.87;5.80;;;;;;;-4.19;84.12;97155.53;6199997;28;20237;-73
2022/02/15 03:00:15;;;;;;;10.23;5.33;;;;;;;-4.17;83.49;97166.66;6216851;28;20220;-73
2022/02/15 03:03:40;;;;;;;12.20;5.70;;;;;;;-4.19;83.73;97170.16;6204491;28;20221;-74
2022/02/15 03:06:44;;;;;;;7.37;4.63;;;;;;;-4.20;83.39;97168.50;6200931;28;20264;-73
2022/02/15 03:09:47;;;;;;;10.77;5.50;;;;;;;-4.22;84.03;97165.09;6204637;28;20232;-73
2022/02/15 03:12:49;;;;;;;8.50;5.57;;;;;;;-4.21;84.59;97157.34;6223406;28;20318;-73
2022/02/15 03:15:52;;;;;;;7.10;5.07;;;;;;;-4.21;83.94;97154.75;6224817;28;20254;-73
2022/02/15 03:18:56;;;;;;;6.77;5.03;;;;;;;-4.23;84.42;97158.28;6224300;28;20742;-73
2022/02/15 03:21:59;;;;;;;8.30;5.73;;;;;;;-4.23;84.13;97168.56;6225099;28;20277;-73
2022/02/15 03:25:03;;;;;;;9.63;5.60;;;;;;;-4.22;84.18;97165.09;6240707;28;20309;-73
2022/02/15 03:28:08;;;;;;;7.70;5.33;;;;;;;-4.24;84.39;97174.59;6224209;28;20228;-73
2022/02/15 03:31:12;;;;;;;7.80;5.27;;;;;;;-4.26;84.28;97174.66;6216238;28;20708;-73
2022/02/15 03:34:15;;;;;;;8.57;5.10;;;;;;;-4.21;84.44;97162.50;6206147;28;20235;-73
2022/02/15 03:37:18;;;;;;;10.23;5.93;;;;;;;-4.21;84.79;97170.22;6230236;28;20232;-72
2022/02/15 03:40:22;;;;;;;9.50;6.47;;;;;;;-4.25;84.44;97180.66;6230337;28;20250;-73
2022/02/15 03:43:24;;;;;;;7.23;5.40;;;;;;;-4.27;84.33;97178.09;6220966;28;20255;-73
2022/02/15 03:46:28;;;;;;;7.40;5.13;;;;;;;-4.32;84.56;97179.16;6201553;28;20247;-73
2022/02/15 03:49:30;;;;;;;8.90;6.00;;;;;;;-4.37;83.67;97178.44;6222484;28;20277;-73
2022/02/15 03:52:33;;;;;;;9.37;5.50;;;;;;;-4.42;84.53;97194.03;6234071;28;20711;-72
2022/02/15 03:55:36;;;;;;;11.13;6.60;;;;;;;-4.47;84.25;97193.31;6233033;28;20239;-72
2022/02/15 03:58:39;;;;;;;8.63;5.43;;;;;;;-4.51;84.32;97196.88;6229057;28;20227;-73
2022/02/15 04:01:47;;;;;;;8.13;5.50;;;;;;;-4.56;84.36;97199.56;6230163;28;20258;-73
2022/02/15 04:04:50;;;;;;;10.33;6.47;;;;;;;-4.52;83.66;97208.06;6228168;28;20215;-73
2022/02/15 04:07:54;;;;;;;14.60;8.43;;;;;;;-4.52;84.03;97219.19;6228687;28;20242;-72
2022/02/15 04:10:57;;;;;;;13.30;9.33;;;;;;;-4.51;84.32;97222.63;6215165;28;20221;-73
2022/02/15 05:13:34;;;;;;;13.90;8.53;;;;;;;-3.55;84.31;97245.50;5435404;28;20236;-74
2022/02/15 05:16:45;;;;;;;11.57;7.97;;;;;;;-3.51;84.56;97253.09;6228665;28;20235;-73
2022/02/15 05:19:51;;;;;;;14.10;8.90;;;;;;;-3.42;84.67;97246.81;6227851;28;20231;-72
2022/02/15 05:22:54;;;;;;;13.23;8.60;;;;;;;-3.38;84.20;97246.63;6210464;28;20228;-72
2022/02/15 05:25:57;;;;;;;13.97;7.70;;;;;;;-3.27;84.70;97238.56;6226889;28;20717;-73
2022/02/15 05:29:20;;;;;;;17.70;8.77;;;;;;;-3.13;85.48;97236.38;6207604;28;20743;-74
2022/02/15 05:32:25;;;;;;;10.83;7.57;;;;;;;-3.06;84.77;97224.94;6231422;28;20628;-74
2022/02/15 05:35:30;;;;;;;12.37;7.83;;;;;;;-2.99;84.61;97239.31;6209027;28;20627;-74
2022/02/15 05:38:33;;;;;;;14.27;8.10;;;;;;;-2.92;84.38;97247.72;6212379;28;20220;-72
2022/02/15 05:41:36;;;;;;;12.60;7.87;;;;;;;-2.87;84.67;97250.13;6223962;28;20226;-74
2022/02/15 05:44:40;;;;;;;12.30;8.20;;;;;;;-2.86;84.43;97256.97;6211664;28;20231;-74
2022/02/15 05:47:44;;;;;;;12.80;8.37;;;;;;;-2.82;84.92;97267.16;6212035;28;20763;-74
2022/02/15 05:50:49;;;;;;;10.73;7.33;;;;;;;-2.77;84.47;97272.16;6227683;28;20239;-72
2022/02/15 05:53:59;;;;;;;12.67;8.57;;;;;;;-2.74;84.51;97269.47;6228190;28;20703;-74
2022/02/15 05:57:08;;;;;;;13.57;8.23;;;;;;;-2.73;84.47;97269.44;6210640;28;20619;-74
2022/02/15 06:00:15;;;;;;;11.30;7.60;;;;;;;-2.71;84.64;97267.66;6226355;28;20207;-75
2022/02/15 06:06:48;;;;;;;10.30;7.30;;;;;;;-2.63;84.51;97281.13;6242041;28;20236;-74
2022/02/15 06:09:53;;;;;;;11.77;7.13;;;;;;;-2.56;84.17;97283.50;6222567;28;20618;-74
2022/02/15 06:12:55;;;;;;;10.77;6.73;;;;;;;-2.52;84.27;97288.50;6187268;28;20723;-75
2022/02/15 06:16:01;;;;;;;9.93;7.00;;;;;;;-2.47;83.92;97286.59;6207078;28;20224;-74
2022/02/15 06:19:16;;;;;;;13.17;7.17;;;;;;;-2.42;83.75;97299.38;6211595;28;20227;-75
2022/02/15 06:22:19;;;;;;;11.77;7.67;;;;;;;-2.40;84.34;97295.00;6226613;28;20718;-75
2022/02/15 06:25:21;;;;;;;9.73;6.53;;;;;;;-2.36;83.95;97302.56;6204580;28;20232;-73
2022/02/15 06:28:27;;;;;;;11.03;7.93;;;;;;;-2.31;83.65;97305.84;6214940;28;20242;-73
2022/02/15 06:31:39;;;;;;;11.93;6.70;;;;;;;-2.23;83.80;97315.91;6213330;28;20442;-73
2022/02/15 06:34:48;;;;;;;10.77;6.80;;;;;;;-2.16;83.76;97317.38;6219653;28;20373;-73
2022/02/15 06:37:51;;;;;;;10.00;6.40;;;;;;;-2.09;83.62;97323.16;6217001;28;20272;-74
2022/02/15 06:40:55;;;;;;;13.53;6.70;;;;;;;-2.06;83.38;97331.66;6212662;28;20611;-73
2022/02/15 06:44:08;;;;;;;12.27;7.03;;;;;;;-2.00;83.61;97333.19;6225544;28;20362;-74
2022/02/15 06:47:16;;;;;;;10.70;6.67;;;;;;;-1.94;83.39;97332.94;6227050;28;20219;-74
2022/02/15 06:50:18;;;;;;;9.13;6.80;;;;;;;-1.87;83.18;97330.06;6226984;28;20304;-74
2022/02/15 06:53:44;;;;;;;9.80;6.50;;;;;;;-1.79;83.33;97332.38;6226181;28;20235;-74
2022/02/15 06:56:58;;;;;;;10.93;6.87;;;;;;;-1.71;83.38;97329.53;6210439;28;20285;-76
2022/02/15 07:00:05;;;;;;;8.87;6.40;;;;;;;-1.64;83.25;97337.00;6225053;28;20228;-76
2022/02/15 07:03:10;;;;;;;8.23;5.97;;;;;;;-1.54;83.27;97330.56;6224728;28;20244;-76
2022/02/15 07:06:13;;;;;;;9.93;5.73;;;;;;;-1.44;82.86;97337.97;6226779;28;20216;-75
2022/02/15 07:09:18;;;;;;;9.50;6.17;;;;;;;-1.39;82.88;97336.91;6223961;28;20215;-75
2022/02/15 07:12:47;;;;;;;10.60;5.87;;;;;;;-1.28;82.76;97339.06;6215634;28;20508;-74
2022/02/15 07:15:59;;;;;;;9.90;6.40;;;;;;;-1.14;82.91;97345.41;6223312;28;20335;-76
2022/02/15 07:19:03;;;;;;;7.27;5.50;;;;;;;-1.03;82.61;97339.81;6222854;28;20414;-74
2022/02/15 07:22:43;;;;;;;8.10;5.37;;;;;;;-0.88;82.51;97346.09;6247577;28;20334;-74
2022/02/15 07:26:02;;;;;;;8.53;6.33;;;;;;;-0.72;82.00;97354.13;6229564;28;20227;-74
2022/02/15 07:29:26;;;;;;;8.80;5.13;;;;;;;-0.55;81.83;97355.09;6222839;28;20350;-73
2022/02/15 07:32:46;;;;;;;8.93;6.10;;;;;;;-0.39;81.26;97347.53;6225560;28;20232;-73
2022/02/15 07:35:52;;;;;;;9.57;4.90;;;;;;;-0.22;81.04;97352.84;6216427;28;20239;-75
2022/02/15 07:38:55;;;;;;;7.50;5.40;;;;;;;-0.07;80.94;97357.38;6226038;28;20237;-75
2022/02/15 07:41:57;;;;;;;7.50;5.47;;;;;;;0.08;79.81;97352.44;6207457;28;20240;-75
2022/02/15 07:45:07;;;;;;;7.67;5.07;;;;;;;0.21;79.01;97356.16;6223877;28;20227;-75
2022/02/15 07:48:10;;;;;;;10.23;5.60;;;;;;;0.39;79.00;97352.75;6208086;28;20259;-74
2022/02/15 07:51:12;;;;;;;8.30;5.17;;;;;;;0.59;78.00;97344.06;6225700;28;20219;-75
2022/02/15 07:54:15;;;;;;;6.73;5.50;;;;;;;0.72;77.97;97343.41;6222824;28;20224;-75
2022/02/15 07:57:17;;;;;;;8.17;5.63;;;;;;;0.84;77.41;97341.16;6225447;28;20246;-75
2022/02/15 08:00:21;;;;;;;7.60;5.70;;;;;;;0.86;77.37;97345.38;6223455;28;20226;-75
2022/02/15 08:03:25;;;;;;;8.50;5.40;;;;;;;0.83;77.88;97353.31;6225638;28;20289;-75
2022/02/15 08:06:28;;;;;;;7.47;5.60;;;;;;;0.81;78.14;97359.47;6223939;28;20236;-74
2022/02/15 08:09:31;;;;;;;8.43;5.10;;;;;;;0.80;78.75;97357.81;6222438;28;20258;-74
2022/02/15 08:12:35;;;;;;;7.83;5.80;;;;;;;0.78;78.85;97355.28;6177742;28;20243;-74
2022/02/15 08:15:40;;;;;;;9.60;6.23;;;;;;;0.77;79.37;97357.94;6223648;28;20262;-74
2022/02/15 08:18:43;;;;;;;9.27;6.37;;;;;;;0.79;78.99;97359.56;6224838;28;20224;-74
2022/02/15 08:21:46;;;;;;;9.07;5.87;;;;;;;0.86;78.59;97362.72;6227445;28;20243;-74
2022/02/15 08:24:48;;;;;;;8.13;6.03;;;;;;;0.95;78.86;97362.28;6229440;28;20247;-75
2022/02/15 08:27:50;;;;;;;8.70;6.73;;;;;;;1.08;78.08;97366.00;6226746;28;20224;-74
2022/02/15 08:30:53;;;;;;;8.03;6.93;;;;;;;1.18;77.85;97364.63;6228621;28;20231;-74
2022/02/15 08:33:55;;;;;;;11.63;6.93;;;;;;;1.38;77.44;97367.13;6228176;28;20311;-73
2022/02/15 08:36:57;;;;;;;9.97;6.47;;;;;;;1.61;76.79;97368.56;6229354;28;20243;-74
2022/02/15 08:40:00;;;;;;;9.20;6.60;;;;;;;1.82;76.18;97367.50;6221826;28;20239;-74
2022/02/15 08:43:02;;;;;;;10.20;7.43;;;;;;;2.07;75.42;97371.47;6225590;28;20258;-74
2022/02/15 08:46:05;;;;;;;12.83;7.73;;;;;;;2.34;75.04;97364.81;6211520;28;20457;-74
2022/02/15 08:49:08;;;;;;;9.47;7.37;;;;;;;2.61;74.44;97362.50;6227840;28;20247;-74
2022/02/15 08:52:10;;;;;;;11.80;8.33;;;;;;;2.85;73.46;97370.78;6228158;28;20794;-75
2022/02/15 08:55:13;;;;;;;15.27;9.10;;;;;;;3.11;73.33;97364.13;6231631;28;20338;-74
2022/02/15 08:58:15;;;;;;;11.10;8.10;;;;;;;3.34;71.90;97368.88;6227382;28;20281;-74
2022/02/15 09:01:20;;;;;;;11.57;7.73;;;;;;;3.50;71.77;97371.47;6211457;28;20235;-74
2022/02/15 09:04:22;;;;;;;12.50;8.47;;;;;;;3.70;71.01;97379.81;6226933;28;20235;-74
2022/02/15 09:07:24;;;;;;;14.40;9.20;;;;;;;3.87;69.40;97368.44;6213352;28;20608;-75
2022/02/15 09:10:28;;;;;;;10.80;7.93;;;;;;;4.14;69.30;97362.50;6219916;28;20232;-73
2022/02/15 09:13:31;;;;;;;11.40;8.60;;;;;;;4.45;68.37;97371.00;6211123;28;20234;-74
2022/02/15 09:16:33;;;;;;;15.37;10.37;;;;;;;4.71;67.02;97366.78;6218931;28;20245;-75
2022/02/15 09:19:36;;;;;;;13.77;8.73;;;;;;;4.96;66.89;97376.59;6228766;28;20263;-75
2022/02/15 09:22:39;;;;;;;14.17;9.30;;;;;;;5.12;66.19;97377.28;6210109;28;20292;-73
2022/02/15 09:25:42;;;;;;;13.67;9.80;;;;;;;5.35;65.92;97380.22;6227004;28;20238;-74
2022/02/15 09:28:44;;;;;;;14.73;10.57;;;;;;;5.65;64.77;97388.69;6203076;28;20239;-74
2022/02/15 09:31:46;;;;;;;11.03;9.00;;;;;;;5.96;64.18;97389.34;6228029;28;20262;-73
2022/02/15 09:34:49;;;;;;;12.50;9.47;;;;;;;6.22;63.47;97381.41;6218345;28;20446;-74
2022/02/15 09:37:51;;;;;;;13.00;8.83;;;;;;;6.59;62.05;97377.09;6213004;28;20370;-74
2022/02/15 09:40:54;;;;;;;12.10;9.17;;;;;;;6.97;60.47;97373.59;6218581;28;20232;-74
2022/02/15 09:43:56;;;;;;;12.53;9.13;;;;;;;7.33;60.13;97380.63;6201343;28;20704;-75
2022/02/15 09:46:59;;;;;;;12.13;8.93;;;;;;;7.70;58.44;97374.34;6213095;28;20267;-74
2022/02/15 09:50:07;;;;;;;11.13;8.23;;;;;;;8.03;58.03;97370.19;6226429;28;20731;-73
2022/02/15 09:53:11;;;;;;;12.93;9.20;;;;;;;8.28;57.83;97366.56;6227125;28;20271;-74
2022/02/15 09:56:14;;;;;;;13.37;9.60;;;;;;;8.65;56.90;97359.34;6228178;28;20231;-74
2022/02/15 09:59:16;;;;;;;12.93;9.47;;;;;;;8.98;57.95;97366.38;6226226;28;20231;-75
2022/02/15 10:02:24;;;;;;;13.77;10.37;;;;;;;9.22;56.95;97362.63;6224986;28;20416;-75
2022/02/15 10:05:33;;;;;;;15.53;11.57;;;;;;;9.08;55.52;97360.28;6226147;28;20309;-73
2022/02/15 10:08:37;;;;;;;13.93;10.60;;;;;;;9.05;57.02;97355.25;6225397;28;20229;-74
2022/02/15 10:11:42;;;;;;;14.27;10.10;;;;;;;9.26;55.98;97360.59;6224687;28;20385;-74
2022/02/15 10:14:47;;;;;;;15.10;11.20;;;;;;;9.22;56.67;97372.31;6227460;28;20239;-75
2022/02/15 10:17:50;;;;;;;13.43;9.97;;;;;;;9.33;56.29;97363.56;6225353;28;20250;-74
2022/02/15 10:20:57;;;;;;;16.43;10.20;;;;;;;9.05;54.96;97363.16;6225429;28;20226;-75
2022/02/15 10:23:59;;;;;;;13.90;10.27;;;;;;;8.96;55.33;97365.66;6209892;28;20241;-75
2022/02/15 10:27:05;;;;;;;12.70;9.73;;;;;;;8.88;55.33;97363.66;6224080;28;20223;-72
2022/02/15 10:30:09;;;;;;;12.93;9.53;;;;;;;9.00;54.79;97344.22;6205998;28;20203;-74
2022/02/15 10:33:11;;;;;;;13.83;10.93;;;;;;;9.28;54.95;97349.97;6215358;28;20222;-75
2022/02/15 10:36:14;;;;;;;13.00;9.70;;;;;;;9.48;55.82;97350.00;6221039;28;20543;-75
2022/02/15 10:39:16;;;;;;;12.00;9.03;;;;;;;9.63;54.60;97342.66;6200219;28;20285;-75
2022/02/15 10:42:23;;;;;;;10.07;9.03;;;;;;;9.75;54.11;97349.56;6225123;28;20277;-75
2022/02/15 10:45:27;;;;;;;14.27;9.10;;;;;;;9.69;52.89;97355.31;6225024;28;20533;-75
2022/02/15 10:48:31;;;;;;;10.57;8.17;;;;;;;9.65;53.94;97364.44;6225424;28;20219;-75
2022/02/15 10:51:34;;;;;;;11.47;9.07;;;;;;;9.80;54.20;97362.34;6227138;28;20318;-73
2022/02/15 10:54:37;;;;;;;12.73;8.67;;;;;;;9.97;53.31;97361.81;6210235;28;20304;-74
2022/02/15 10:57:40;;;;;;;12.23;8.90;;;;;;;10.19;52.10;97353.78;6241502;28;20359;-75
2022/02/15 11:00:43;;;;;;;11.60;9.07;;;;;;;10.42;51.67;97359.78;6224691;28;20239;-74
2022/02/15 11:03:46;;;;;;;12.00;8.47;;;;;;;10.58;50.38;97365.41;6226180;28;20227;-74
2022/02/15 11:06:50;;;;;;;10.67;8.30;;;;;;;10.72;50.06;97377.44;6209194;28;20358;-74
2022/02/15 11:10:10;;;;;;;13.70;9.37;;;;;;;10.65;50.27;97371.00;6221529;28;20244;-75
2022/02/15 11:13:14;;;;;;;11.57;9.40;;;;;;;10.84;50.86;97373.75;6187295;28;20232;-75
2022/02/15 11:16:18;;;;;;;10.37;8.23;;;;;;;11.03;50.50;97367.69;6208302;28;20231;-75
2022/02/15 11:19:21;;;;;;;10.73;8.60;;;;;;;11.24;49.61;97379.03;6225713;28;20228;-73
2022/02/15 11:22:24;;;;;;;11.27;9.33;;;;;;;11.25;49.54;97382.50;6224261;28;20227;-74
2022/02/15 11:25:37;;;;;;;11.93;9.43;;;;;;;11.33;49.32;97377.38;6208361;28;20239;-74
2022/02/15 11:28:50;;;;;;;11.20;8.10;;;;;;;11.54;49.20;97388.69;6213069;28;20334;-74
2022/02/15 11:31:53;;;;;;;13.03;9.73;;;;;;;11.12;49.14;97371.34;6215125;28;20237;-74
2022/02/15 11:34:56;;;;;;;10.47;8.30;;;;;;;11.13;49.77;97373.84;6220116;28;20240;-74
2022/02/15 11:38:27;;;;;;;14.17;10.53;;;;;;;11.30;50.72;97367.06;6199898;28;20240;-75
2022/02/15 11:41:42;;;;;;;12.67;8.83;;;;;;;11.39;48.55;97377.66;6197375;28;20739;-75
2022/02/15 11:44:45;;;;;;;12.23;10.03;;;;;;;11.62;48.61;97377.44;6221458;28;20240;-75
2022/02/15 11:47:47;;;;;;;13.97;9.83;;;;;;;11.70;48.70;97359.91;6229863;28;20260;-75
2022/02/15 11:50:54;;;;;;;14.23;10.30;;;;;;;11.08;50.24;97368.13;6224919;28;20243;-75
2022/02/15 11:53:57;;;;;;;13.27;10.20;;;;;;;10.71;51.20;97365.19;6224169;28;20298;-75
2022/02/15 11:57:01;;;;;;;10.43;8.87;;;;;;;10.65;51.55;97371.00;6227763;28;20234;-75
2022/02/15 12:00:06;;;;;;;12.27;9.07;;;;;;;10.84;50.34;97379.03;6229580;28;20251;-74
2022/02/15 12:03:17;;;;;;;9.80;7.83;;;;;;;10.93;47.91;97364.19;6205926;28;20283;-75
2022/02/15 12:06:21;;;;;;;10.50;8.27;;;;;;;10.90;47.91;97378.47;6217827;28;20232;-75
2022/02/15 12:09:28;;;;;;;10.80;7.90;;;;;;;11.12;47.75;97373.97;6209270;28;20221;-74
2022/02/15 12:12:44;;;;;;;9.47;7.70;;;;;;;11.52;47.19;97374.78;6197174;28;20242;-74
2022/02/15 12:15:48;;;;;;;9.73;7.83;;;;;;;11.64;46.69;97373.69;6211723;28;20253;-72
2022/02/15 12:18:51;;;;;;;13.33;9.10;;;;;;;11.45;47.25;97369.22;6216365;28;20240;-74
2022/02/15 12:21:55;;;;;;;12.93;9.10;;;;;;;11.61;47.12;97366.03;6227700;28;20237;-74
2022/02/15 12:24:59;;;;;;;13.50;9.70;;;;;;;11.43;46.71;97375.59;6227181;28;20233;-73
2022/02/15 12:28:04;;;;;;;11.80;9.03;;;;;;;11.41;47.31;97372.25;6227704;28;20229;-74
2022/02/15 12:31:09;;;;;;;12.53;8.67;;;;;;;11.55;46.73;97368.41;6232180;28;20248;-73
2022/02/15 12:34:13;;;;;;;11.27;8.80;;;;;;;11.80;46.17;97359.94;6208791;28;20222;-74
2022/02/15 12:37:24;;;;;;;11.70;8.83;;;;;;;11.91;45.37;97357.19;6229795;28;20264;-74
2022/02/15 12:40:26;;;;;;;9.63;7.30;;;;;;;11.80;45.46;97355.50;6235951;28;20594;-74
2022/02/15 12:43:29;;;;;;;11.37;8.73;;;;;;;11.78;44.75;97361.91;6211466;28;20233;-74
2022/02/15 12:46:35;;;;;;;11.30;8.20;;;;;;;12.03;44.36;97360.53;6217785;28;20239;-73
2022/02/15 12:49:39;;;;;;;9.03;7.83;;;;;;;12.14;43.41;97361.22;6229032;28;20732;-74
2022/02/15 12:52:42;;;;;;;9.80;7.70;;;;;;;12.18;43.89;97356.44;6229275;28;20266;-76
2022/02/15 12:55:49;;;;;;;9.73;7.30;;;;;;;12.63;42.46;97361.13;6229315;28;20241;-76
2022/02/15 12:58:54;;;;;;;11.67;7.40;;;;;;;12.81;41.70;97354.09;6244575;28;20308;-75
2022/02/15 13:01:58;;;;;;;9.00;7.60;;;;;;;12.98;40.90;97355.16;6228648;28;20247;-73
2022/02/15 13:05:04;;;;;;;9.10;7.57;;;;;;;12.55;41.20;97364.50;6229529;28;20371;-76
2022/02/15 13:08:16;;;;;;;10.70;7.53;;;;;;;12.13;43.49;97366.63;6227846;28;20324;-75
2022/02/15 13:11:25;;;;;;;11.17;6.83;;;;;;;12.14;43.57;97363.03;6214199;28;20235;-75
2022/02/15 13:14:28;;;;;;;8.63;6.70;;;;;;;11.95;43.96;97361.22;6193761;28;20240;-74
2022/02/15 13:17:38;;;;;;;11.10;7.70;;;;;;;11.80;43.89;97366.06;6206835;28;20238;-75
2022/02/15 13:20:42;;;;;;;8.20;6.77;;;;;;;11.73;44.72;97375.50;6204593;28;20229;-73
2022/02/15 13:24:08;;;;;;;8.27;6.63;;;;;;;11.63;43.95;97379.13;6203769;28;20234;-75
2022/02/15 13:27:10;;;;;;;8.53;6.53;;;;;;;11.32;44.99;97379.19;6203592;28;20248;-75
2022/02/15 13:30:16;;;;;;;8.90;6.27;;;;;;;11.06;45.51;97375.38;6224362;28;20218;-73
2022/02/15 13:33:21;;;;;;;8.33;6.33;;;;;;;11.04;45.82;97380.78;6226854;28;20240;-75
2022/02/15 13:36:31;;;;;;;10.67;6.70;;;;;;;11.25;45.61;97391.28;6228502;28;20232;-74
2022/02/15 13:39:34;;;;;;;7.80;6.63;;;;;;;11.44;45.43;97393.13;6219066;28;20234;-75
2022/02/15 13:42:37;;;;;;;9.10;7.07;;;;;;;11.44;44.80;97393.13;6224838;28;20315;-74
2022/02/15 13:45:39;;;;;;;8.43;6.30;;;;;;;11.32;45.15;97381.00;6210496;28;20235;-74
2022/02/15 13:48:41;;;;;;;7.63;6.17;;;;;;;11.37;44.98;97379.63;6226462;28;20239;-74
2022/02/15 13:51:43;;;;;;;11.33;6.77;;;;;;;11.65;44.24;97372.72;6225166;28;20262;-74
2022/02/15 13:54:47;;;;;;;6.77;6.00;;;;;;;12.31;42.98;97372.88;6227145;28;20239;-72
2022/02/15 13:57:49;;;;;;;8.70;7.03;;;;;;;13.44;40.19;97368.34;6227755;28;20228;-74
2022/02/15 14:00:51;;;;;;;8.30;7.10;;;;;;;12.41;40.93;97365.75;6227040;28;20727;-75
2022/02/15 14:03:53;;;;;;;9.77;7.10;;;;;;;11.57;42.80;97369.09;6226640;28;20588;-74
2022/02/15 14:06:57;;;;;;;10.40;7.50;;;;;;;10.75;44.70;97385.09;6226736;28;20613;-75
2022/02/15 14:10:00;;;;;;;8.63;7.00;;;;;;;10.25;47.01;97390.22;6222698;28;20287;-75
2022/02/15 14:13:02;;;;;;;7.47;6.60;;;;;;;10.22;46.88;97393.09;6219590;28;20351;-74
2022/02/15 14:16:04;;;;;;;8.40;6.30;;;;;;;10.18;47.34;97398.78;6232181;28;20236;-75
2022/02/15 14:19:08;;;;;;;10.97;7.77;;;;;;;9.99;47.71;97404.66;6231387;28;20247;-74
2022/02/15 14:22:11;;;;;;;9.90;6.83;;;;;;;9.93;48.07;97406.03;6227523;28;20231;-74
2022/02/15 14:25:15;;;;;;;9.40;6.77;;;;;;;9.80;46.96;97409.78;6226773;28;20577;-74
2022/02/15 14:28:17;;;;;;;10.03;6.97;;;;;;;9.70;46.60;97411.47;6225942;28;20215;-75
2022/02/15 14:31:20;;;;;;;8.43;6.53;;;;;;;9.71;46.29;97407.88;6225982;28;20228;-75
2022/02/15 14:34:22;;;;;;;8.43;6.77;;;;;;;9.69;46.05;97410.66;6225106;28;20729;-74
2022/02/15 14:37:25;;;;;;;8.03;6.33;;;;;;;9.57;47.37;97406.38;6216954;28;20719;-74
2022/02/15 14:40:27;;;;;;;9.00;7.17;;;;;;;9.43;46.73;97401.38;6207114;28;20236;-74
2022/02/15 14:43:32;;;;;;;12.20;8.37;;;;;;;9.25;47.36;97401.06;6212840;28;20331;-74
2022/02/15 14:46:35;;;;;;;8.83;6.83;;;;;;;9.11;48.24;97402.13;6224350;28;20243;-74
2022/02/15 14:49:37;;;;;;;9.17;6.70;;;;;;;9.11;48.67;97398.66;6226309;28;20389;-74
2022/02/15 14:52:42;;;;;;;6.30;5.40;;;;;;;9.08;48.93;97397.13;6225943;28;20227;-74
2022/02/15 14:55:46;;;;;;;7.63;5.67;;;;;;;9.03;49.55;97404.53;6224257;28;20254;-74
2022/02/15 14:58:48;;;;;;;7.60;5.30;;;;;;;8.97;50.43;97409.47;6223993;28;20238;-74
2022/02/15 15:01:50;;;;;;;8.20;6.07;;;;;;;8.92;50.43;97416.84;6223394;28;20241;-73
2022/02/15 15:04:53;;;;;;;7.17;5.77;;;;;;;8.85;50.93;97411.25;6208018;28;20797;-74
2022/02/15 15:07:55;;;;;;;7.57;6.00;;;;;;;8.72;51.89;97411.34;6224987;28;20624;-74
2022/02/15 15:10:58;;;;;;;8.23;6.30;;;;;;;8.53;53.04;97418.97;6224670;28;20244;-76
2022/02/15 15:14:00;;;;;;;6.47;5.80;;;;;;;8.36;53.50;97415.00;6224673;28;20241;-73
2022/02/15 15:17:03;;;;;;;9.17;6.87;;;;;;;8.28;54.47;97416.50;6223756;28;20741;-72
2022/02/15 15:20:10;;;;;;;7.37;5.77;;;;;;;8.15;55.14;97424.47;6225749;28;20237;-73
2022/02/15 15:23:13;;;;;;;8.00;6.60;;;;;;;8.02;56.33;97421.91;6202104;28;20237;-72
2022/02/15 15:26:16;;;;;;;7.87;6.50;;;;;;;7.89;56.99;97434.25;6222870;28;20711;-73
2022/02/15 15:29:18;;;;;;;7.17;6.03;;;;;;;7.85;56.89;97448.59;6211559;28;20238;-73
2022/02/15 15:32:23;;;;;;;7.27;6.47;;;;;;;7.78;57.42;97444.75;6207108;28;20274;-73
2022/02/15 15:35:27;;;;;;;8.27;6.40;;;;;;;7.70;57.62;97452.31;6224561;28;20291;-73